createdAt,value
2022-08-06T00:00:59.889Z,51.43
2022-08-06T00:03:26.845Z,51.15
2022-08-06T00:05:53.512Z,50.85
2022-08-06T00:08:20.190Z,51.05
2022-08-06T00:10:48.091Z,50.71
2022-08-06T00:13:15.618Z,50.82
2022-08-06T00:16:09.419Z,51.27
2022-08-06T00:18:29.150Z,51.77
2022-08-06T00:20:55.780Z,51.47
2022-08-06T00:23:24.597Z,51.05
2022-08-06T00:25:53.050Z,50.66
2022-08-06T00:28:30.575Z,50.63
2022-08-06T00:31:06.367Z,50.63
2022-08-06T00:33:49.903Z,50.86
2022-08-06T00:36:18.838Z,49.91
2022-08-06T00:38:52.110Z,49.86
2022-08-06T00:41:20.467Z,49.72
2022-08-06T00:43:49.822Z,49.70
2022-08-06T00:46:16.768Z,50.48
2022-08-06T00:48:53.047Z,49.26
2022-08-06T00:51:21.181Z,49.56
2022-08-06T00:53:48.569Z,50.10
2022-08-06T00:56:15.364Z,50.12
2022-08-06T00:58:42.125Z,49.45
2022-08-06T01:01:17.193Z,49.54
2022-08-06T01:03:51.775Z,49.64
2022-08-06T01:06:55.741Z,48.86
2022-08-06T01:09:10.658Z,49.38
2022-08-06T01:11:40.592Z,49.48
2022-08-06T01:14:09.821Z,49.20
2022-08-06T01:16:47.844Z,49.66
2022-08-06T01:21:21.919Z,49.61
2022-08-06T01:22:51.768Z,49.67
2022-08-06T01:25:18.548Z,50.15
2022-08-06T01:27:57.035Z,50.51
2022-08-06T01:30:30.043Z,50.58
2022-08-06T01:33:15.755Z,49.90
2022-08-06T01:35:55.414Z,50.31
2022-08-06T01:38:36.875Z,50.19
2022-08-06T01:41:14.118Z,49.46
2022-08-06T01:44:05.608Z,49.83
2022-08-06T01:46:29.521Z,49.72
2022-08-06T01:48:58.838Z,49.56
2022-08-06T01:52:15.264Z,49.35
2022-08-06T01:54:26.623Z,49.43
2022-08-06T01:57:01.835Z,49.44
2022-08-06T01:59:37.441Z,49.26
2022-08-06T02:02:07.287Z,49.31
2022-08-06T02:04:40.698Z,49.76
2022-08-06T02:07:14.156Z,48.89
2022-08-06T02:09:59.779Z,48.70
2022-08-06T02:12:28.297Z,48.68
2022-08-06T02:15:01.878Z,48.80
2022-08-06T02:18:04.387Z,48.60
2022-08-06T02:20:37.267Z,48.67
2022-08-06T02:23:09.452Z,48.94
2022-08-06T02:25:41.279Z,49.10
2022-08-06T02:28:10.480Z,48.31
2022-08-06T02:30:42.993Z,48.09
2022-08-06T02:33:11.075Z,49.11
2022-08-06T02:35:51.209Z,48.62
2022-08-06T02:38:23.525Z,48.24
2022-08-06T02:41:03.171Z,48.15
2022-08-06T02:43:35.450Z,48.26
2022-08-06T02:46:22.266Z,48.73
2022-08-06T02:48:57.756Z,48.40
2022-08-06T02:52:11.986Z,48.59
2022-08-06T02:54:46.756Z,48.96
2022-08-06T02:57:22.704Z,49.19
2022-08-06T02:59:55.579Z,48.83
2022-08-06T03:02:26.531Z,49.23
2022-08-06T03:04:56.627Z,49.30
2022-08-06T03:07:29.290Z,48.95
2022-08-06T03:09:58.963Z,49.41
2022-08-06T03:12:30.005Z,49.60
2022-08-06T03:15:06.682Z,49.76
2022-08-06T03:17:40.730Z,49.20
2022-08-06T03:20:17.293Z,48.62
2022-08-06T03:22:49.707Z,48.95
2022-08-06T03:25:17.988Z,49.25
2022-08-06T03:27:49.740Z,48.56
2022-08-06T03:30:33.113Z,48.94
2022-08-06T03:33:28.689Z,48.98
2022-08-06T03:35:56.526Z,48.33
2022-08-06T03:38:28.915Z,48.63
2022-08-06T03:40:58.063Z,48.29
2022-08-06T03:43:28.030Z,48.01
2022-08-06T03:46:06.228Z,48.26
2022-08-06T03:48:41.385Z,49.31
2022-08-06T03:51:29.639Z,49.13
2022-08-06T03:54:14.830Z,49.97
2022-08-06T03:56:50.588Z,50.18
2022-08-06T03:59:19.481Z,49.78
2022-08-06T04:01:50.827Z,50.06
2022-08-06T04:04:26.845Z,49.48
2022-08-06T04:07:00.511Z,48.65
2022-08-06T04:09:57.368Z,48.51
2022-08-06T04:12:42.790Z,49.98
2022-08-06T04:15:08.378Z,48.71
2022-08-06T04:17:40.798Z,49.04
2022-08-06T04:20:14.442Z,48.26
2022-08-06T04:23:04.581Z,48.75
2022-08-06T04:25:37.280Z,48.78
2022-08-06T04:28:06.022Z,48.02
2022-08-06T04:30:34.875Z,48.36
2022-08-06T04:33:04.039Z,48.31
2022-08-06T04:36:05.832Z,48.82
2022-08-06T04:38:27.845Z,48.11
2022-08-06T04:40:57.526Z,48.20
2022-08-06T04:43:24.652Z,48.80
2022-08-06T04:46:15.859Z,49.97
2022-08-06T04:48:47.033Z,48.87
2022-08-06T04:51:17.088Z,47.78
2022-08-06T04:54:05.122Z,48.47
2022-08-06T04:56:37.108Z,49.84
2022-08-06T04:59:07.333Z,49.83
2022-08-06T05:01:40.840Z,50.07
2022-08-06T05:04:22.905Z,49.85
2022-08-06T05:07:10.572Z,49.74
2022-08-06T05:09:43.538Z,49.32
2022-08-06T05:12:17.268Z,50.18
2022-08-06T05:15:21.390Z,49.79
2022-08-06T05:18:01.128Z,49.57
2022-08-06T05:20:32.822Z,49.88
2022-08-06T05:23:08.607Z,49.09
2022-08-06T05:25:53.480Z,49.67
2022-08-06T05:28:22.883Z,50.08
2022-08-06T05:30:54.668Z,49.95
2022-08-06T05:33:37.260Z,49.98
2022-08-06T05:36:19.705Z,49.27
2022-08-06T05:38:58.607Z,49.65
2022-08-06T05:41:29.941Z,50.03
2022-08-06T05:44:02.160Z,48.52
2022-08-06T05:46:35.112Z,48.60
2022-08-06T05:49:57.410Z,49.58
2022-08-06T05:52:38.214Z,49.05
2022-08-06T05:55:29.904Z,49.67
2022-08-06T05:58:11.333Z,49.28
2022-08-06T06:00:43.257Z,50.38
2022-08-06T06:03:24.539Z,48.98
2022-08-06T06:06:08.193Z,49.25
2022-08-06T06:08:57.418Z,49.46
2022-08-06T06:11:55.430Z,51.38
2022-08-06T06:14:37.844Z,50.32
2022-08-06T06:17:39.409Z,51.17
2022-08-06T06:20:58.441Z,51.16
2022-08-06T06:23:24.744Z,50.53
2022-08-06T06:26:10.143Z,51.15
2022-08-06T06:30:02.855Z,51.16
2022-08-06T06:32:59.363Z,51.00
2022-08-06T06:35:42.638Z,52.06
2022-08-06T06:38:37.734Z,51.28
2022-08-06T06:41:22.960Z,52.01
2022-08-06T06:43:54.452Z,50.80
2022-08-06T06:46:39.111Z,52.24
2022-08-06T06:49:59.603Z,51.65
2022-08-06T06:52:32.162Z,50.37
2022-08-06T06:55:15.748Z,52.44
2022-08-06T06:57:51.685Z,52.85
2022-08-06T07:00:45.167Z,52.57
2022-08-06T07:03:10.058Z,53.54
2022-08-06T07:06:03.183Z,53.16
2022-08-06T07:08:37.222Z,52.44
2022-08-06T07:11:06.570Z,52.61
2022-08-06T07:13:48.090Z,53.23
2022-08-06T07:16:35.533Z,53.39
2022-08-06T07:19:10.485Z,54.01
2022-08-06T07:21:42.467Z,53.21
2022-08-06T07:24:37.929Z,54.89
2022-08-06T07:27:06.531Z,54.65
2022-08-06T07:29:49.139Z,53.79
2022-08-06T07:32:31.844Z,53.55
2022-08-06T07:35:12.324Z,54.34
2022-08-06T07:37:56.885Z,53.62
2022-08-06T07:40:28.897Z,54.20
2022-08-06T07:43:02.584Z,53.43
2022-08-06T07:45:38.237Z,52.67
2022-08-06T07:48:27.644Z,53.39
2022-08-06T07:50:55.806Z,53.21
2022-08-06T07:53:40.797Z,54.16
2022-08-06T07:56:11.616Z,53.77
2022-08-06T07:58:39.718Z,53.90
2022-08-06T08:01:16.886Z,53.82
2022-08-06T08:04:34.300Z,52.73
2022-08-06T08:06:56.228Z,53.81
2022-08-06T08:09:29.354Z,53.66
2022-08-06T08:12:29.601Z,54.16
2022-08-06T08:15:03.075Z,54.25
2022-08-06T08:17:35.011Z,53.98
2022-08-06T08:20:15.254Z,53.52
2022-08-06T08:22:48.125Z,53.39
2022-08-06T08:25:21.934Z,53.82
2022-08-06T08:28:11.079Z,53.66
2022-08-06T08:30:44.100Z,53.42
2022-08-06T08:33:17.936Z,53.04
2022-08-06T08:35:49.871Z,54.39
2022-08-06T08:38:22.111Z,53.45
2022-08-06T08:40:55.815Z,53.19
2022-08-06T08:43:40.716Z,53.69
2022-08-06T08:46:31.056Z,53.83
2022-08-06T08:49:01.882Z,53.24
2022-08-06T08:51:29.241Z,53.70
2022-08-06T08:53:59.346Z,53.04
2022-08-06T08:57:08.500Z,52.84
2022-08-06T08:59:59.253Z,53.40
2022-08-06T09:02:01.059Z,53.13
2022-08-06T09:04:29.070Z,52.31
2022-08-06T09:06:56.890Z,52.37
2022-08-06T09:09:32.345Z,52.30
2022-08-06T09:12:06.163Z,51.68
2022-08-06T09:14:47.281Z,52.17
2022-08-06T09:17:18.119Z,52.28
2022-08-06T09:20:02.084Z,51.73
2022-08-06T09:22:29.005Z,51.46
2022-08-06T09:24:56.106Z,52.46
2022-08-06T09:27:46.700Z,51.71
2022-08-06T09:30:30.337Z,51.91
2022-08-06T09:33:04.155Z,51.87
2022-08-06T09:35:58.664Z,52.08
2022-08-06T09:38:25.691Z,51.62
2022-08-06T09:41:07.237Z,52.07
2022-08-06T09:44:02.895Z,51.66
2022-08-06T09:46:44.186Z,51.10
2022-08-06T09:49:47.609Z,51.63
2022-08-06T09:52:14.707Z,50.71
2022-08-06T09:54:43.817Z,50.22
2022-08-06T09:57:13.083Z,50.55
2022-08-06T09:59:50.174Z,50.46
2022-08-06T10:02:23.997Z,50.62
2022-08-06T10:05:17.506Z,51.17
2022-08-06T10:07:47.754Z,50.72
2022-08-06T10:10:28.785Z,50.45
2022-08-06T10:13:26.123Z,50.52
2022-08-06T10:16:00.915Z,50.14
2022-08-06T10:18:56.165Z,49.55
2022-08-06T10:21:41.101Z,49.31
2022-08-06T10:24:10.158Z,48.76
2022-08-06T10:26:36.922Z,49.01
2022-08-06T10:29:08.559Z,48.79
2022-08-06T10:31:37.454Z,48.36
2022-08-06T10:34:11.220Z,48.60
2022-08-06T10:36:48.142Z,48.30
2022-08-06T10:40:06.865Z,48.46
2022-08-06T10:42:15.266Z,47.50
2022-08-06T10:44:49.575Z,47.69
2022-08-06T10:48:59.389Z,47.07
2022-08-06T10:50:24.364Z,46.86
2022-08-06T10:52:53.616Z,47.28
2022-08-06T10:55:21.892Z,47.03
2022-08-06T10:57:49.606Z,46.31
2022-08-06T11:00:21.406Z,46.50
2022-08-06T11:03:16.575Z,46.30
2022-08-06T11:05:54.352Z,46.06
2022-08-06T11:08:53.440Z,46.16
2022-08-06T11:11:40.666Z,46.98
2022-08-06T11:14:14.836Z,46.81
2022-08-06T11:16:59.162Z,47.23
2022-08-06T11:19:56.489Z,46.53
2022-08-06T11:22:36.033Z,46.51
2022-08-06T11:25:25.875Z,46.65
2022-08-06T11:27:54.088Z,45.96
2022-08-06T11:30:45.898Z,46.68
2022-08-06T11:33:32.652Z,45.78
2022-08-06T11:36:10.907Z,45.89
2022-08-06T11:39:09.832Z,46.31
2022-08-06T11:41:54.162Z,46.07
2022-08-06T11:44:27.363Z,46.32
2022-08-06T11:47:09.110Z,46.04
2022-08-06T11:49:43.036Z,45.88
2022-08-06T11:52:31.268Z,45.62
2022-08-06T11:55:08.476Z,45.21
2022-08-06T11:57:41.982Z,45.99
2022-08-06T12:00:19.964Z,46.14
2022-08-06T12:02:53.300Z,45.67
2022-08-06T12:05:20.907Z,45.64
2022-08-06T12:08:38.539Z,46.12
2022-08-06T12:11:20.155Z,46.52
2022-08-06T12:13:57.480Z,46.12
2022-08-06T12:16:39.634Z,45.62
2022-08-06T12:19:13.852Z,45.50
2022-08-06T12:21:44.765Z,44.98
2022-08-06T12:24:22.814Z,45.52
2022-08-06T12:26:49.555Z,44.97
2022-08-06T12:29:16.569Z,45.24
2022-08-06T12:31:50.387Z,45.02
2022-08-06T12:34:27.824Z,44.68
2022-08-06T12:36:54.964Z,44.16
2022-08-06T12:39:45.475Z,44.39
2022-08-06T12:42:53.186Z,44.33
2022-08-06T12:45:32.978Z,44.12
2022-08-06T12:48:05.267Z,44.00
2022-08-06T12:50:44.063Z,42.83
2022-08-06T12:53:12.895Z,42.82
2022-08-06T12:55:48.206Z,43.16
2022-08-06T12:58:41.946Z,42.60
2022-08-06T13:01:16.360Z,42.17
2022-08-06T13:04:06.635Z,41.32
2022-08-06T13:06:37.581Z,41.52
2022-08-06T13:09:08.139Z,41.92
2022-08-06T13:11:37.538Z,41.93
2022-08-06T13:14:17.684Z,41.75
2022-08-06T13:16:54.526Z,41.50
2022-08-06T13:19:32.752Z,40.80
2022-08-06T13:22:09.273Z,40.19
2022-08-06T13:24:36.188Z,41.11
2022-08-06T13:27:05.911Z,40.70
2022-08-06T13:30:32.159Z,40.92
2022-08-06T13:32:32.967Z,40.82
2022-08-06T13:35:17.154Z,40.84
2022-08-06T13:37:56.924Z,40.43
2022-08-06T13:40:47.443Z,42.02
2022-08-06T13:43:55.776Z,41.89
2022-08-06T13:46:28.127Z,41.59
2022-08-06T13:49:04.463Z,41.77
2022-08-06T13:51:38.929Z,41.54
2022-08-06T13:54:19.251Z,41.31
2022-08-06T13:56:52.063Z,40.72
2022-08-06T13:59:21.533Z,40.44
2022-08-06T14:01:52.805Z,41.06
2022-08-06T14:04:25.852Z,41.00
2022-08-06T14:06:54.372Z,41.15
2022-08-06T14:09:27.366Z,41.06
2022-08-06T14:11:59.662Z,41.13
2022-08-06T14:14:28.616Z,40.67
2022-08-06T14:16:57.347Z,40.65
2022-08-06T14:20:14.323Z,41.08
2022-08-06T14:22:10.820Z,41.07
2022-08-06T14:24:39.541Z,41.11
2022-08-06T14:27:14.841Z,40.96
2022-08-06T14:30:28.158Z,40.74
2022-08-06T14:32:30.202Z,40.72
2022-08-06T14:34:58.004Z,40.95
2022-08-06T14:37:43.391Z,41.16
2022-08-06T14:40:32.373Z,40.44
2022-08-06T14:43:20.640Z,40.49
2022-08-06T14:45:47.249Z,41.17
2022-08-06T14:48:15.994Z,40.81
2022-08-06T14:50:42.568Z,40.83
2022-08-06T14:53:16.094Z,40.61
2022-08-06T14:56:07.720Z,40.48
2022-08-06T14:58:30.765Z,40.64
2022-08-06T15:00:58.188Z,40.11
2022-08-06T15:03:27.574Z,39.69
2022-08-06T15:06:04.625Z,39.72
2022-08-06T15:08:34.259Z,40.24
2022-08-06T15:11:05.751Z,39.72
2022-08-06T15:13:36.936Z,39.86
2022-08-06T15:16:10.851Z,39.94
2022-08-06T15:19:10.473Z,40.16
2022-08-06T15:21:51.323Z,40.17
2022-08-06T15:24:25.309Z,40.20
2022-08-06T15:26:52.715Z,40.04
2022-08-06T15:29:34.712Z,39.90
2022-08-06T15:32:08.538Z,40.24
2022-08-06T15:34:49.789Z,40.38
2022-08-06T15:37:54.242Z,40.05
2022-08-06T15:40:07.733Z,39.91
2022-08-06T15:42:34.391Z,39.75
2022-08-06T15:45:02.103Z,40.32
2022-08-06T15:47:32.713Z,40.15
2022-08-06T15:50:08.973Z,40.19
2022-08-06T15:52:43.828Z,40.51
2022-08-06T15:55:16.196Z,40.49
2022-08-06T15:58:06.787Z,40.56
2022-08-06T16:00:36.651Z,40.28
2022-08-06T16:03:08.706Z,39.76
2022-08-06T16:06:10.508Z,39.69
2022-08-06T16:08:33.910Z,40.07
2022-08-06T16:11:09.176Z,40.24
2022-08-06T16:13:36.305Z,39.64
2022-08-06T16:16:04.238Z,40.39
2022-08-06T16:18:33.972Z,39.78
2022-08-06T16:21:06.349Z,39.71
2022-08-06T16:23:55.590Z,39.23
2022-08-06T16:26:40.573Z,39.52
2022-08-06T16:29:12.640Z,39.59
2022-08-06T16:31:48.597Z,40.04
2022-08-06T16:34:23.124Z,39.73
2022-08-06T16:36:56.644Z,39.71
2022-08-06T16:39:36.296Z,39.79
2022-08-06T16:42:10.091Z,39.51
2022-08-06T16:47:27.164Z,39.94
2022-08-06T16:50:24.842Z,40.01
2022-08-06T16:54:07.926Z,40.12
2022-08-06T16:55:42.336Z,40.10
2022-08-06T16:58:16.388Z,40.09
2022-08-06T17:00:59.304Z,39.82
2022-08-06T17:09:20.976Z,39.96
2022-08-06T17:11:57.644Z,39.98
2022-08-06T17:14:27.125Z,39.83
2022-08-06T17:16:54.534Z,40.04
2022-08-06T17:19:21.290Z,39.70
2022-08-06T17:21:58.070Z,40.35
2022-08-06T17:24:36.575Z,40.49
2022-08-06T17:27:10.225Z,40.32
2022-08-06T17:29:45.554Z,40.42
2022-08-06T17:32:27.622Z,40.45
2022-08-06T17:34:59.814Z,40.27
2022-08-06T17:37:26.523Z,40.54
2022-08-06T17:40:27.711Z,40.66
2022-08-06T17:42:28.999Z,39.33
2022-08-06T17:43:12.534Z,40.40
2022-08-06T17:45:51.934Z,40.00
2022-08-06T17:48:26.647Z,40.20
2022-08-06T17:50:57.536Z,39.72
2022-08-06T17:53:25.839Z,40.47
2022-08-06T17:56:12.388Z,40.40
2022-08-06T17:59:06.570Z,40.32
2022-08-06T18:01:44.448Z,40.36
2022-08-06T18:04:22.039Z,40.14
2022-08-06T18:06:58.739Z,40.35
2022-08-06T18:10:11.176Z,40.01
2022-08-06T18:12:27.688Z,39.84
2022-08-06T18:14:55.049Z,40.13
2022-08-06T18:17:21.965Z,39.64
2022-08-06T18:19:48.718Z,39.93
2022-08-06T18:22:23.423Z,39.68
2022-08-06T18:24:53.958Z,39.59
2022-08-06T18:27:54.230Z,39.71
2022-08-06T18:30:36.283Z,39.96
2022-08-06T18:33:10.142Z,40.03
2022-08-06T18:35:55.653Z,40.29
2022-08-06T18:38:31.331Z,40.54
2022-08-06T18:41:14.267Z,40.35
2022-08-06T18:43:54.552Z,40.46
2022-08-06T18:46:57.463Z,40.25
2022-08-06T18:49:20.656Z,40.17
2022-08-06T18:52:00.369Z,40.51
2022-08-06T18:54:27.923Z,40.33
2022-08-06T18:56:56.735Z,40.88
2022-08-06T18:59:28.409Z,41.75
2022-08-06T19:01:57.863Z,41.47
2022-08-06T19:04:28.582Z,41.84
2022-08-06T19:07:03.454Z,41.43
2022-08-06T19:09:35.175Z,41.80
2022-08-06T19:12:13.225Z,42.05
2022-08-06T19:14:43.885Z,41.98
2022-08-06T19:17:11.356Z,42.33
2022-08-06T19:19:59.230Z,42.50
2022-08-06T19:22:28.787Z,43.09
2022-08-06T19:24:57.399Z,43.17
2022-08-06T19:28:30.742Z,43.45
2022-08-06T19:30:38.805Z,43.16
2022-08-06T19:33:01.676Z,43.75
2022-08-06T19:36:11.882Z,44.46
2022-08-06T19:38:29.511Z,44.54
2022-08-06T19:40:57.491Z,43.54
2022-08-06T19:44:24.883Z,44.21
2022-08-06T19:46:25.396Z,45.06
2022-08-06T19:48:57.930Z,46.17
2022-08-06T19:52:01.190Z,45.88
2022-08-06T19:54:15.692Z,45.77
2022-08-06T19:56:44.874Z,46.11
2022-08-06T20:00:52.847Z,46.21
2022-08-06T20:02:09.275Z,45.89
2022-08-06T20:04:42.716Z,45.99
2022-08-06T20:07:23.826Z,45.57
2022-08-06T20:10:00.044Z,46.02
2022-08-06T20:12:32.207Z,46.80
2022-08-06T20:15:04.801Z,46.84
2022-08-06T20:17:49.979Z,46.27
2022-08-06T20:20:28.850Z,45.95
2022-08-06T20:22:59.362Z,46.70
2022-08-06T20:25:26.572Z,47.16
2022-08-06T20:29:08.504Z,47.01
2022-08-06T20:30:50.304Z,47.34
2022-08-06T20:33:25.386Z,46.64
2022-08-06T20:35:57.277Z,46.59
2022-08-06T20:38:35.938Z,46.33
2022-08-06T20:41:56.840Z,46.16
2022-08-06T20:44:05.968Z,47.04
2022-08-06T20:49:47.923Z,47.04
2022-08-06T20:52:08.436Z,46.32
2022-08-06T20:54:38.563Z,46.58
2022-08-06T20:57:05.406Z,47.71
2022-08-06T20:59:33.550Z,48.22
2022-08-06T21:02:04.561Z,48.13
2022-08-06T21:05:15.014Z,48.03
2022-08-06T21:07:31.384Z,48.44
2022-08-06T21:10:09.553Z,48.23
2022-08-06T21:12:58.936Z,48.42
2022-08-06T21:15:26.405Z,47.61
2022-08-06T21:18:08.982Z,47.02
2022-08-06T21:20:36.496Z,48.15
2022-08-06T21:23:03.143Z,48.55
2022-08-06T21:25:42.611Z,48.96
2022-08-06T21:28:13.192Z,48.16
2022-08-06T21:30:41.114Z,47.97
2022-08-06T21:33:08.830Z,48.55
2022-08-06T21:35:35.534Z,48.98
2022-08-06T21:38:07.405Z,48.92
2022-08-06T21:40:50.792Z,47.87
2022-08-06T21:43:17.379Z,48.70
2022-08-06T21:45:50.288Z,48.57
2022-08-06T21:48:31.641Z,48.18
2022-08-06T21:50:59.709Z,48.21
2022-08-06T21:53:49.116Z,46.90
2022-08-06T21:59:01.256Z,48.79
2022-08-06T22:02:10.766Z,48.48
2022-08-06T22:04:36.841Z,48.05
2022-08-06T22:07:03.180Z,48.24
2022-08-06T22:09:38.337Z,49.08
2022-08-06T22:12:36.853Z,47.75
2022-08-06T22:14:58.653Z,47.34
2022-08-06T22:17:59.389Z,48.36
2022-08-06T22:20:21.946Z,48.79
2022-08-06T22:22:52.851Z,48.15
2022-08-06T22:25:22.400Z,47.62
2022-08-06T22:27:54.529Z,47.77
2022-08-06T22:30:33.249Z,48.90
2022-08-06T22:33:01.806Z,47.94
2022-08-06T22:35:38.422Z,48.00
2022-08-06T22:38:16.982Z,47.91
2022-08-06T22:40:49.120Z,48.58
2022-08-06T22:43:21.567Z,48.15
2022-08-06T22:46:00.981Z,48.49
2022-08-06T22:48:35.428Z,49.16
2022-08-06T22:51:06.186Z,49.73
2022-08-06T22:54:29.561Z,49.52
2022-08-06T22:56:28.128Z,49.43
2022-08-06T22:59:06.827Z,49.70
2022-08-06T23:02:06.758Z,50.17
2022-08-06T23:04:31.950Z,49.26
2022-08-06T23:07:02.947Z,49.10
2022-08-06T23:09:39.798Z,49.76
2022-08-06T23:12:07.901Z,50.25
2022-08-06T23:14:36.130Z,49.23
2022-08-06T23:17:09.384Z,49.41
2022-08-06T23:19:57.262Z,49.52
2022-08-06T23:22:23.806Z,48.03
2022-08-06T23:25:03.615Z,48.73
2022-08-06T23:27:46.232Z,49.77
2022-08-06T23:30:19.775Z,49.50
2022-08-06T23:32:49.009Z,48.84
2022-08-06T23:35:36.878Z,48.48
2022-08-06T23:38:31.614Z,48.07
2022-08-06T23:40:54.356Z,48.75
2022-08-06T23:43:22.668Z,49.55
2022-08-06T23:45:49.659Z,48.81
2022-08-06T23:48:17.532Z,49.20
2022-08-06T23:50:53.259Z,48.81
2022-08-06T23:54:07.439Z,48.29
2022-08-06T23:56:14.733Z,48.40
2022-08-06T23:58:46.965Z,49.81
